Time;durP1;ratioP1;P1;durP2;ratioP2;P2;SDS_P1;SDS_P2;PMS_P1;PMS_P2;Temp;Humidity;BMP_temperature;BMP_pressure;BME280_temperature;BME280_humidity;BME280_pressure;Samples;Min_cycle;Max_cycle;Signal;HPM_P1;HPM_P2
2022/10/27 00:00:55;;;;;;;10.80;7.28;;;15.50;77.80;;;;;;2291694;58;21039;-56
2022/10/27 00:03:23;;;;;;;11.60;7.28;;;15.50;77.60;;;;;;2485301;54;21066;-52
2022/10/27 00:05:50;;;;;;;12.57;7.82;;;15.40;77.40;;;;;;2292006;58;21138;-55
2022/10/27 00:08:20;;;;;;;14.63;8.15;;;15.40;77.30;;;;;;2291841;58;21544;-57
2022/10/27 00:10:56;;;;;;;10.13;7.10;;;15.50;77.30;;;;;;2292284;58;21103;-52
2022/10/27 00:13:24;;;;;;;14.02;7.57;;;15.40;77.20;;;;;;2291773;58;21114;-52
2022/10/27 00:16:03;;;;;;;13.48;7.28;;;15.40;77.10;;;;;;2464534;53;21172;-57
2022/10/27 00:18:31;;;;;;;9.88;7.32;;;15.40;77.20;;;;;;2355283;57;21075;-56
2022/10/27 00:21:00;;;;;;;11.88;7.32;;;15.40;77.10;;;;;;2355948;57;21033;-56
2022/10/27 00:23:28;;;;;;;11.70;7.93;;;15.40;77.20;;;;;;2605678;53;21512;-57
2022/10/27 00:25:56;;;;;;;12.52;6.85;;;15.30;77.10;;;;;;2354333;57;21025;-56
2022/10/27 00:28:24;;;;;;;13.35;8.45;;;15.30;77.10;;;;;;2354169;57;21057;-57
2022/10/27 00:30:58;;;;;;;12.57;8.23;;;15.30;77.10;;;;;;2354965;57;21402;-56
2022/10/27 00:33:26;;;;;;;15.13;7.82;;;15.30;77.20;;;;;;2354698;57;21028;-57
2022/10/27 00:35:54;;;;;;;11.38;7.10;;;15.30;77.20;;;;;;2602398;53;21093;-56
2022/10/27 00:38:22;;;;;;;13.57;8.27;;;15.30;77.00;;;;;;2354778;57;21092;-55
2022/10/27 00:40:49;;;;;;;15.48;8.30;;;15.30;77.20;;;;;;2354739;57;21104;-56
2022/10/27 00:43:27;;;;;;;10.88;7.68;;;15.30;77.10;;;;;;2354617;57;21049;-56
2022/10/27 00:45:59;;;;;;;12.77;8.77;;;15.30;77.30;;;;;;2355103;57;21129;-57
2022/10/27 00:48:28;;;;;;;12.98;8.32;;;15.20;77.40;;;;;;2355070;57;21056;-57
2022/10/27 00:50:57;;;;;;;12.45;8.52;;;15.20;77.50;;;;;;2354116;57;21025;-57
2022/10/27 00:53:25;;;;;;;12.55;9.25;;;15.20;77.70;;;;;;2354164;57;21096;-57
2022/10/27 00:55:52;;;;;;;15.00;9.30;;;15.20;77.80;;;;;;2601094;53;21112;-57
2022/10/27 00:58:21;;;;;;;14.30;9.50;;;15.20;77.90;;;;;;2353738;57;21049;-57
2022/10/27 01:00:49;;;;;;;21.25;9.27;;;15.20;78.00;;;;;;2354937;57;21029;-57
2022/10/27 01:03:21;;;;;;;12.30;9.23;;;15.20;78.10;;;;;;2353834;57;21037;-57
2022/10/27 01:05:51;;;;;;;14.27;9.37;;;15.20;78.00;;;;;;2354415;57;21037;-57
2022/10/27 01:08:20;;;;;;;17.87;10.50;;;15.20;78.20;;;;;;2354187;57;21052;-57
2022/10/27 01:10:47;;;;;;;13.50;9.07;;;15.20;78.00;;;;;;2354105;57;21033;-57
2022/10/27 01:13:14;;;;;;;16.83;9.95;;;15.10;78.20;;;;;;2354511;57;21033;-57
2022/10/27 01:15:51;;;;;;;13.23;8.27;;;15.20;78.40;;;;;;2601553;53;21041;-57
2022/10/27 01:18:26;;;;;;;15.55;9.60;;;15.10;78.40;;;;;;2354274;57;21025;-57
2022/10/27 01:24:28;;;;;;;14.00;9.18;;;15.20;78.60;;;;;;2354411;57;22133;-56
2022/10/27 01:26:59;;;;;;;17.50;9.63;;;15.20;78.50;;;;;;2320233;58;21048;-56
2022/10/27 01:29:48;;;;;;;16.33;10.15;;;15.20;78.50;;;;;;2322085;58;21036;-56
2022/10/27 01:32:27;;;;;;;14.68;9.68;;;15.10;78.70;;;;;;2563224;54;21099;-56
2022/10/27 01:35:01;;;;;;;12.98;9.63;;;15.10;78.70;;;;;;2321178;58;21079;-55
2022/10/27 01:37:35;;;;;;;15.95;9.45;;;15.10;78.80;;;;;;2321440;58;21113;-57
2022/10/27 01:40:09;;;;;;;18.17;9.50;;;15.10;78.90;;;;;;2320896;58;21115;-57
2022/10/27 01:42:45;;;;;;;17.42;9.88;;;15.10;79.10;;;;;;2322019;58;21044;-57
2022/10/27 01:45:14;;;;;;;14.40;9.38;;;15.10;78.90;;;;;;2321222;58;21059;-56
2022/10/27 01:47:42;;;;;;;16.15;10.15;;;15.10;79.00;;;;;;2320585;58;21123;-58
2022/10/27 01:50:10;;;;;;;16.17;9.00;;;15.10;79.10;;;;;;2321419;58;21048;-56
2022/10/27 01:52:41;;;;;;;14.20;8.82;;;15.10;79.00;;;;;;2563452;53;21083;-57
2022/10/27 01:55:12;;;;;;;12.30;8.90;;;15.10;79.10;;;;;;2322004;58;21096;-57
2022/10/27 01:57:54;;;;;;;15.85;8.38;;;15.10;79.10;;;;;;2322246;58;21108;-56
2022/10/27 02:00:22;;;;;;;15.60;9.02;;;15.10;79.10;;;;;;2321984;58;21036;-57
2022/10/27 02:02:55;;;;;;;14.75;8.27;;;15.10;79.00;;;;;;2322486;58;21431;-57
2022/10/27 02:05:30;;;;;;;15.05;8.70;;;15.10;79.10;;;;;;2322157;58;21063;-57
2022/10/27 02:08:05;;;;;;;13.93;9.43;;;15.10;79.20;;;;;;2321172;58;21088;-56
2022/10/27 02:10:39;;;;;;;15.48;9.93;;;15.10;79.30;;;;;;2321322;58;21095;-57
2022/10/27 02:13:08;;;;;;;13.68;9.73;;;15.10;79.40;;;;;;2563929;54;21040;-57
2022/10/27 02:15:38;;;;;;;17.90;9.13;;;15.10;79.40;;;;;;2319788;58;21048;-55
2022/10/27 02:18:09;;;;;;;12.77;8.57;;;15.10;79.40;;;;;;2321417;58;21095;-57
2022/10/27 02:20:40;;;;;;;16.92;9.55;;;15.10;79.50;;;;;;2321392;58;21040;-55
2022/10/27 02:23:11;;;;;;;16.37;10.15;;;15.10;79.50;;;;;;2321345;58;21036;-56
2022/10/27 02:25:46;;;;;;;11.88;9.07;;;15.10;79.50;;;;;;2321892;58;21079;-56
2022/10/27 02:28:17;;;;;;;15.15;8.98;;;15.10;79.50;;;;;;2321138;58;21178;-56
2022/10/27 02:30:45;;;;;;;14.43;9.38;;;15.10;79.50;;;;;;2321809;58;21051;-56
2022/10/27 02:33:14;;;;;;;18.23;10.07;;;15.10;79.60;;;;;;2321600;58;21523;-56
2022/10/27 02:35:41;;;;;;;11.90;8.93;;;15.10;79.50;;;;;;2320510;58;21051;-55
2022/10/27 02:38:09;;;;;;;14.32;9.68;;;15.10;79.60;;;;;;2320923;58;21031;-56
2022/10/27 02:40:36;;;;;;;16.23;9.60;;;15.10;79.70;;;;;;2320683;58;21536;-56
2022/10/27 02:43:03;;;;;;;15.57;10.55;;;15.10;79.80;;;;;;2320168;58;21618;-56
2022/10/27 02:45:30;;;;;;;14.32;9.82;;;15.10;80.00;;;;;;2321007;58;21048;-56
2022/10/27 02:47:57;;;;;;;16.70;9.60;;;15.10;79.70;;;;;;2320097;58;21513;-56
2022/10/27 02:50:25;;;;;;;16.10;9.18;;;15.10;79.60;;;;;;2321081;58;21048;-56
2022/10/27 02:52:52;;;;;;;14.98;9.50;;;15.10;79.70;;;;;;2321107;58;21044;-56
2022/10/27 02:55:20;;;;;;;16.73;9.65;;;15.10;79.60;;;;;;2320061;58;21063;-56
2022/10/27 02:57:47;;;;;;;15.98;9.70;;;15.10;79.60;;;;;;2320067;58;21124;-56
2022/10/27 03:00:17;;;;;;;13.18;8.80;;;15.10;79.70;;;;;;2321037;58;21056;-55
2022/10/27 03:02:46;;;;;;;16.25;9.38;;;15.10;79.40;;;;;;2318610;58;21124;-55
2022/10/27 03:05:13;;;;;;;12.52;8.88;;;15.10;79.30;;;;;;2319959;58;21107;-55
2022/10/27 03:07:41;;;;;;;14.73;8.98;;;15.10;79.40;;;;;;2319502;58;21087;-55
2022/10/27 03:10:09;;;;;;;17.35;8.95;;;15.10;79.30;;;;;;2321581;58;21047;-56
2022/10/27 03:12:37;;;;;;;17.23;9.70;;;15.10;79.20;;;;;;2561928;54;21052;-56
2022/10/27 03:15:07;;;;;;;16.25;8.88;;;15.10;79.10;;;;;;2320753;58;21063;-56
2022/10/27 03:17:34;;;;;;;13.85;8.48;;;15.10;79.00;;;;;;2320996;58;21064;-56
2022/10/27 03:20:02;;;;;;;16.33;10.10;;;15.10;79.00;;;;;;2321649;58;21040;-56
2022/10/27 03:22:29;;;;;;;14.75;10.52;;;15.10;79.10;;;;;;2319909;58;21544;-56
2022/10/27 03:24:56;;;;;;;13.18;7.90;;;15.00;79.10;;;;;;2563379;54;21067;-57
2022/10/27 03:27:24;;;;;;;13.02;8.05;;;15.10;79.30;;;;;;2320689;58;21099;-55
2022/10/27 03:29:51;;;;;;;12.98;9.43;;;15.00;79.30;;;;;;2320976;58;21051;-54
2022/10/27 03:32:18;;;;;;;16.62;9.48;;;15.00;79.20;;;;;;2563006;53;21044;-56
2022/10/27 03:34:46;;;;;;;15.65;9.05;;;15.00;79.10;;;;;;2321477;58;21528;-55
2022/10/27 03:37:13;;;;;;;16.33;9.32;;;15.00;79.00;;;;;;2320668;58;21520;-56
2022/10/27 03:39:41;;;;;;;10.25;8.32;;;15.00;79.00;;;;;;2320148;58;21064;-56
2022/10/27 03:42:08;;;;;;;16.40;10.82;;;15.00;78.90;;;;;;2320554;58;21119;-56
2022/10/27 03:44:35;;;;;;;15.27;9.88;;;15.00;78.90;;;;;;2561439;54;21093;-55
2022/10/27 03:47:03;;;;;;;14.55;9.23;;;15.00;78.70;;;;;;2318121;58;21072;-55
2022/10/27 03:49:30;;;;;;;11.20;8.07;;;15.00;78.80;;;;;;2319732;58;21068;-56
2022/10/27 03:51:57;;;;;;;16.42;8.57;;;15.00;78.60;;;;;;2320997;58;21084;-56
2022/10/27 03:54:24;;;;;;;14.55;8.90;;;15.00;78.90;;;;;;2320589;58;21036;-56
2022/10/27 03:56:51;;;;;;;12.85;8.75;;;15.00;78.80;;;;;;2320835;58;21557;-54
2022/10/27 03:59:18;;;;;;;13.80;8.57;;;15.00;78.80;;;;;;2317966;58;21072;-56
2022/10/27 04:01:46;;;;;;;19.42;9.27;;;15.00;78.90;;;;;;2320395;58;21512;-56
2022/10/27 04:04:13;;;;;;;12.50;8.77;;;15.00;79.00;;;;;;2320090;58;21135;-56
2022/10/27 04:06:40;;;;;;;13.43;8.82;;;15.00;78.90;;;;;;2320293;58;21056;-55
2022/10/27 04:09:07;;;;;;;11.05;7.75;;;15.00;79.00;;;;;;2320278;58;21473;-57
2022/10/27 04:11:34;;;;;;;16.95;8.60;;;15.00;80.00;;;;;;2320581;58;21048;-56
2022/10/27 04:14:01;;;;;;;12.18;7.30;;;14.90;79.10;;;;;;2320378;58;21107;-56
2022/10/27 04:16:29;;;;;;;11.27;7.95;;;14.90;79.20;;;;;;2319779;58;21115;-57
2022/10/27 04:18:56;;;;;;;12.43;8.32;;;14.90;79.10;;;;;;2320716;58;21088;-56
2022/10/27 04:21:23;;;;;;;11.30;7.93;;;14.90;79.20;;;;;;2319679;58;21036;-57
2022/10/27 04:23:51;;;;;;;14.55;8.23;;;14.90;79.20;;;;;;2561093;54;21056;-57
2022/10/27 04:26:18;;;;;;;18.33;9.20;;;14.90;79.30;;;;;;2320005;58;21703;-57
2022/10/27 04:28:45;;;;;;;14.35;8.25;;;14.90;79.20;;;;;;2320395;58;21591;-56
2022/10/27 04:31:13;;;;;;;13.95;7.40;;;14.90;79.20;;;;;;2561181;54;21155;-57
2022/10/27 04:33:40;;;;;;;12.23;8.23;;;14.90;79.10;;;;;;2320840;58;21068;-56
2022/10/27 04:36:08;;;;;;;11.57;8.50;;;14.90;79.10;;;;;;2321007;58;21090;-56
2022/10/27 04:38:35;;;;;;;8.98;6.65;;;14.90;79.20;;;;;;2320762;58;21135;-58
2022/10/27 04:41:03;;;;;;;10.18;7.45;;;14.90;79.40;;;;;;2320872;58;21095;-56
2022/10/27 04:43:30;;;;;;;10.27;7.10;;;14.90;79.40;;;;;;2562557;54;21056;-57
2022/10/27 04:45:58;;;;;;;11.82;7.55;;;14.90;79.30;;;;;;2321264;58;21044;-56
2022/10/27 04:48:25;;;;;;;16.48;8.00;;;14.80;79.30;;;;;;2321478;58;21064;-57
2022/10/27 04:50:52;;;;;;;13.52;7.87;;;14.90;79.30;;;;;;2321389;58;21088;-57
2022/10/27 04:53:19;;;;;;;13.18;7.60;;;14.90;79.20;;;;;;2320864;58;21075;-57
2022/10/27 04:55:46;;;;;;;12.13;7.80;;;14.90;79.10;;;;;;2320177;58;21036;-56
2022/10/27 04:58:13;;;;;;;16.00;7.05;;;14.80;79.20;;;;;;2320012;58;21032;-57
2022/10/27 05:00:41;;;;;;;11.60;7.90;;;14.80;79.30;;;;;;2321380;58;21092;-56
2022/10/27 05:03:09;;;;;;;12.13;8.68;;;14.80;79.40;;;;;;2562843;54;21036;-57
2022/10/27 05:05:37;;;;;;;11.35;7.72;;;14.80;79.00;;;;;;2321442;58;21112;-56
2022/10/27 05:08:04;;;;;;;10.95;7.57;;;14.80;79.00;;;;;;2319835;58;21544;-56
2022/10/27 05:10:33;;;;;;;15.88;8.05;;;14.80;79.10;;;;;;2320949;58;21068;-57
2022/10/27 05:13:00;;;;;;;11.38;7.28;;;14.80;79.20;;;;;;2321137;58;21143;-49
2022/10/27 05:15:28;;;;;;;11.50;7.55;;;14.80;79.20;;;;;;2319748;58;21079;-58
2022/10/27 05:17:55;;;;;;;15.45;8.10;;;14.80;79.20;;;;;;2321045;58;21110;-58
2022/10/27 05:20:23;;;;;;;13.13;8.10;;;14.80;79.20;;;;;;2321483;58;21045;-58
2022/10/27 05:22:50;;;;;;;13.32;7.85;;;14.80;79.20;;;;;;2562365;53;21068;-58
2022/10/27 05:25:17;;;;;;;10.90;7.45;;;14.70;79.30;;;;;;2321284;58;21099;-58
2022/10/27 05:27:44;;;;;;;12.30;7.65;;;14.80;79.30;;;;;;2320416;58;21155;-58
2022/10/27 05:30:13;;;;;;;11.75;7.32;;;14.80;79.00;;;;;;2562106;53;21072;-58
2022/10/27 05:32:41;;;;;;;13.00;7.85;;;14.70;78.80;;;;;;2319470;58;21627;-58
2022/10/27 05:35:09;;;;;;;11.20;8.35;;;14.70;78.70;;;;;;2321391;58;21055;-58
2022/10/27 05:37:42;;;;;;;13.60;8.15;;;14.70;78.60;;;;;;2320863;58;21055;-58
2022/10/27 05:40:11;;;;;;;14.38;8.45;;;14.70;78.50;;;;;;2321657;58;21126;-58
2022/10/27 05:42:38;;;;;;;11.90;8.25;;;14.70;78.40;;;;;;2321653;58;21048;-58
2022/10/27 05:45:09;;;;;;;14.32;7.97;;;14.70;78.40;;;;;;2319188;58;21138;-58
2022/10/27 05:47:36;;;;;;;14.00;9.82;;;14.70;78.50;;;;;;2319539;58;21067;-58
2022/10/27 05:52:39;;;;;;;17.15;10.30;;;14.60;78.40;;;;;;2280132;58;27994;-58
2022/10/27 05:55:08;;;;;;;12.93;8.95;;;14.40;82.10;;;;;;2292825;58;21539;-57
2022/10/27 05:57:35;;;;;;;14.55;8.35;;;14.60;81.40;;;;;;2291680;59;21079;-57
2022/10/27 06:00:05;;;;;;;15.07;9.05;;;14.60;80.60;;;;;;2527214;55;21115;-57
2022/10/27 06:02:32;;;;;;;13.45;8.02;;;14.70;80.40;;;;;;2292079;59;21516;-57
2022/10/27 06:05:00;;;;;;;14.30;9.00;;;14.70;80.20;;;;;;2291848;59;21083;-57
2022/10/27 06:07:27;;;;;;;14.77;8.45;;;14.70;80.20;;;;;;2290566;59;21059;-57
2022/10/27 06:09:54;;;;;;;10.93;7.70;;;14.70;80.20;;;;;;2289075;59;21564;-58
2022/10/27 06:12:21;;;;;;;16.25;9.93;;;14.70;80.20;;;;;;2525299;55;21079;-57
2022/10/27 06:15:31;;;;;;;15.95;9.73;;;14.70;80.20;;;;;;2290069;59;21056;-57
2022/10/27 06:17:58;;;;;;;14.38;8.65;;;14.70;80.40;;;;;;2241415;60;21078;-46
2022/10/27 06:20:26;;;;;;;15.32;9.25;;;14.70;80.10;;;;;;2320780;56;21148;-50
2022/10/27 06:22:53;;;;;;;14.73;9.20;;;14.70;80.20;;;;;;2241741;60;21065;-51
2022/10/27 06:25:20;;;;;;;11.00;7.62;;;14.70;80.40;;;;;;2254095;59;21102;-49
2022/10/27 06:27:48;;;;;;;13.68;8.68;;;14.70;80.50;;;;;;2267111;59;21070;-49
2022/10/27 06:30:16;;;;;;;15.68;8.70;;;14.70;80.40;;;;;;2267260;59;21146;-50
2022/10/27 06:32:43;;;;;;;13.80;8.68;;;14.70;80.30;;;;;;2323754;55;21622;-52
2022/10/27 06:35:10;;;;;;;9.52;6.70;;;14.70;80.40;;;;;;2267422;59;21051;-48
2022/10/27 06:37:39;;;;;;;12.95;8.15;;;14.70;80.50;;;;;;2267597;59;21115;-50
2022/10/27 06:40:09;;;;;;;13.65;8.63;;;14.70;80.40;;;;;;2267010;59;21059;-51
2022/10/27 06:42:38;;;;;;;14.93;8.43;;;14.70;80.40;;;;;;2267486;59;21079;-51
2022/10/27 06:45:07;;;;;;;12.63;8.00;;;14.70;80.40;;;;;;2267245;59;21047;-49
2022/10/27 06:47:34;;;;;;;11.30;7.18;;;14.70;80.40;;;;;;2266731;59;21043;-47
2022/10/27 06:50:02;;;;;;;11.68;7.22;;;14.70;80.40;;;;;;2266545;59;22822;-48
2022/10/27 06:52:29;;;;;;;8.65;6.65;;;14.70;80.50;;;;;;2266887;59;21122;-50
2022/10/27 06:54:56;;;;;;;11.75;7.68;;;14.70;80.60;;;;;;2267293;59;21146;-51
2022/10/27 06:57:23;;;;;;;13.55;8.32;;;14.80;81.40;;;;;;2267186;59;21115;-52
2022/10/27 06:59:50;;;;;;;13.48;8.45;;;14.70;80.60;;;;;;2267749;59;21167;-52
2022/10/27 07:02:17;;;;;;;10.57;6.65;;;14.80;80.60;;;;;;2376238;55;21111;-48
2022/10/27 07:04:44;;;;;;;14.40;8.27;;;14.80;80.70;;;;;;2265904;59;21179;-49
2022/10/27 07:07:12;;;;;;;15.07;7.37;;;14.80;80.70;;;;;;2267616;59;21726;-49
2022/10/27 07:09:40;;;;;;;11.68;8.23;;;14.90;80.80;;;;;;2267831;59;21170;-50
2022/10/27 07:12:08;;;;;;;15.85;8.93;;;14.90;80.90;;;;;;2497941;55;21055;-52
2022/10/27 07:14:35;;;;;;;14.80;8.85;;;14.90;80.90;;;;;;2267606;59;21118;-50
2022/10/27 07:17:02;;;;;;;14.85;8.98;;;14.90;80.90;;;;;;2265265;59;21087;-47
2022/10/27 07:19:31;;;;;;;12.57;8.02;;;14.90;80.90;;;;;;2361266;55;21063;-52
2022/10/27 07:24:33;;;;;;;16.17;9.55;;;14.90;81.00;;;;;;2330500;57;28016;-51
2022/10/27 07:27:01;;;;;;;15.73;8.80;;;14.80;83.60;;;;;;2343844;57;21081;-50
2022/10/27 07:29:29;;;;;;;14.30;8.10;;;14.90;82.80;;;;;;2346185;57;21017;-48
2022/10/27 07:31:57;;;;;;;14.50;8.00;;;15.00;82.30;;;;;;2347728;57;21114;-50
2022/10/27 07:34:24;;;;;;;11.95;7.12;;;15.10;81.80;;;;;;2347680;57;21056;-48
2022/10/27 07:36:51;;;;;;;11.95;7.80;;;15.10;81.60;;;;;;2347039;57;21038;-51
2022/10/27 07:39:19;;;;;;;10.73;7.68;;;15.10;81.50;;;;;;2346666;57;21530;-47
2022/10/27 07:41:46;;;;;;;12.90;8.40;;;15.20;81.50;;;;;;2345451;57;21044;-51
2022/10/27 07:46:49;;;;;;;16.15;10.25;;;15.20;81.30;;;;;;2335456;57;27767;-54
2022/10/27 07:49:16;;;;;;;13.98;9.25;;;15.00;83.50;;;;;;2345080;57;21628;-57
2022/10/27 07:51:43;;;;;;;13.35;8.23;;;15.10;82.80;;;;;;2347207;57;21041;-55
2022/10/27 07:54:10;;;;;;;12.13;8.05;;;15.20;82.20;;;;;;2344352;57;21077;-54
2022/10/27 07:56:38;;;;;;;15.20;8.55;;;15.30;81.90;;;;;;2320766;58;21059;-57
2022/10/27 07:59:05;;;;;;;10.23;7.72;;;15.20;81.60;;;;;;2322102;58;21088;-56
2022/10/27 08:01:33;;;;;;;13.52;8.52;;;15.30;81.60;;;;;;2321399;58;21648;-52
2022/10/27 08:04:00;;;;;;;14.80;8.05;;;15.30;81.90;;;;;;2321409;58;21064;-54
2022/10/27 08:06:27;;;;;;;13.00;8.27;;;15.40;81.90;;;;;;2321548;58;21553;-56
2022/10/27 08:08:54;;;;;;;13.65;8.85;;;15.40;82.10;;;;;;2321224;58;21096;-54
2022/10/27 08:11:22;;;;;;;11.45;8.10;;;15.40;82.20;;;;;;2320663;58;21107;-50
2022/10/27 08:13:51;;;;;;;13.30;8.05;;;15.50;82.20;;;;;;2355916;54;21032;-55
2022/10/27 08:16:18;;;;;;;12.43;8.38;;;15.50;82.40;;;;;;2322435;58;21032;-53
2022/10/27 08:18:45;;;;;;;15.63;8.80;;;15.50;82.30;;;;;;2322156;58;21580;-54
2022/10/27 08:21:13;;;;;;;14.45;8.23;;;15.50;82.30;;;;;;2322839;58;21032;-56
2022/10/27 08:23:40;;;;;;;17.05;8.63;;;15.60;82.10;;;;;;2322515;58;21096;-56
2022/10/27 08:26:08;;;;;;;12.85;8.75;;;15.60;82.20;;;;;;2320275;58;21123;-50
2022/10/27 08:28:35;;;;;;;13.10;8.95;;;15.60;82.20;;;;;;2320449;58;21508;-57
2022/10/27 08:31:02;;;;;;;19.25;8.70;;;15.60;82.20;;;;;;2322514;58;21821;-53
2022/10/27 08:33:29;;;;;;;13.77;8.77;;;15.70;82.40;;;;;;2322136;58;21062;-56
2022/10/27 08:36:00;;;;;;;15.90;9.23;;;15.70;82.50;;;;;;2322339;58;21182;-55
2022/10/27 08:38:28;;;;;;;14.43;8.77;;;15.70;82.50;;;;;;2322240;58;21096;-56
2022/10/27 08:41:04;;;;;;;14.38;8.90;;;15.80;82.70;;;;;;2322567;58;21056;-56
2022/10/27 08:43:59;;;;;;;13.77;9.07;;;15.80;82.80;;;;;;2321456;58;21060;-56
2022/10/27 08:49:09;;;;;;;15.07;8.93;;;15.90;82.80;;;;;;2354069;57;22539;-52
2022/10/27 08:51:37;;;;;;;15.32;8.45;;;15.90;83.00;;;;;;2346167;57;21037;-55
2022/10/27 08:54:06;;;;;;;13.40;9.32;;;16.00;82.90;;;;;;2347495;57;21026;-54
2022/10/27 08:56:39;;;;;;;16.52;9.35;;;16.00;83.00;;;;;;2431817;52;21035;-55
2022/10/27 09:01:50;;;;;;;17.30;9.70;;;16.10;83.10;;;;;;2336694;57;38101;-55
2022/10/27 09:04:30;;;;;;;12.90;8.80;;;16.10;85.40;;;;;;2347749;56;21572;-54
2022/10/27 09:07:09;;;;;;;13.77;7.35;;;16.30;84.80;;;;;;2375443;56;21168;-58
2022/10/27 09:09:45;;;;;;;13.95;8.23;;;16.40;84.20;;;;;;2405976;52;21031;-59
2022/10/27 09:12:19;;;;;;;13.23;8.02;;;16.40;83.50;;;;;;2376208;56;21055;-55
2022/10/27 09:17:49;;;;;;;11.18;7.55;;;16.60;83.40;;;;;;2356220;57;22078;-58
2022/10/27 09:20:24;;;;;;;14.95;7.85;;;16.60;83.20;;;;;;2345567;57;21068;-58
2022/10/27 09:22:53;;;;;;;16.87;8.02;;;16.60;83.10;;;;;;2348816;57;21038;-59
2022/10/27 09:25:22;;;;;;;13.25;8.15;;;16.70;83.20;;;;;;2365947;53;21578;-61
2022/10/27 09:27:52;;;;;;;15.80;8.48;;;16.70;83.00;;;;;;2374237;56;21098;-59
2022/10/27 09:30:20;;;;;;;12.30;7.82;;;16.80;82.90;;;;;;2373989;56;21198;-59
2022/10/27 09:32:50;;;;;;;13.43;8.07;;;16.80;82.80;;;;;;2376471;56;21173;-59
2022/10/27 09:35:22;;;;;;;12.73;7.47;;;16.90;82.90;;;;;;2374932;56;21042;-62
2022/10/27 09:37:50;;;;;;;12.20;7.10;;;16.90;82.70;;;;;;2398691;52;21039;-62
2022/10/27 09:40:19;;;;;;;16.12;7.95;;;16.90;82.00;;;;;;2375451;56;21047;-61
2022/10/27 09:42:49;;;;;;;15.50;7.60;;;16.90;82.20;;;;;;2376233;56;21027;-62
2022/10/27 09:45:19;;;;;;;9.05;6.82;;;17.00;81.90;;;;;;2405103;52;21059;-60
2022/10/27 09:47:52;;;;;;;12.55;6.75;;;17.00;81.90;;;;;;2375423;56;21082;-60
2022/10/27 09:50:23;;;;;;;13.00;7.40;;;17.00;82.00;;;;;;2374919;56;21118;-59
2022/10/27 09:52:51;;;;;;;8.60;6.55;;;17.00;81.80;;;;;;2376358;56;21034;-59
2022/10/27 09:55:19;;;;;;;9.25;5.90;;;17.00;81.30;;;;;;2376011;56;21030;-58
2022/10/27 09:57:48;;;;;;;13.05;5.95;;;17.10;81.50;;;;;;2428814;52;21019;-59
2022/10/27 10:00:27;;;;;;;11.12;6.35;;;17.10;81.00;;;;;;2372953;56;21019;-55
2022/10/27 10:03:00;;;;;;;9.40;5.93;;;17.10;81.40;;;;;;2382155;52;21102;-52
2022/10/27 10:05:30;;;;;;;10.40;5.85;;;17.20;81.50;;;;;;2442851;52;21035;-53
2022/10/27 10:08:19;;;;;;;10.18;5.70;;;17.20;81.40;;;;;;2368966;56;21023;-59
2022/10/27 10:10:55;;;;;;;8.07;5.22;;;17.30;81.20;;;;;;2373132;56;21019;-51
2022/10/27 10:13:24;;;;;;;9.45;6.00;;;17.30;81.20;;;;;;2413192;52;21034;-57
2022/10/27 10:16:07;;;;;;;11.45;5.72;;;17.30;81.00;;;;;;2366149;56;21110;-47
2022/10/27 10:18:35;;;;;;;10.82;5.32;;;17.40;81.00;;;;;;2382231;52;21507;-52
2022/10/27 10:21:05;;;;;;;12.50;6.68;;;17.40;80.80;;;;;;2372427;56;21134;-60
2022/10/27 10:26:18;;;;;;;14.55;6.47;;;17.40;81.00;;;;;;2311622;57;28079;-54
2022/10/27 10:28:49;;;;;;;10.20;5.12;;;17.50;83.00;;;;;;2340066;57;21128;-50
2022/10/27 10:31:26;;;;;;;8.60;5.10;;;17.60;82.20;;;;;;2341578;57;21189;-53
2022/10/27 10:34:01;;;;;;;10.77;5.10;;;17.70;81.80;;;;;;2382655;53;21049;-51
2022/10/27 10:36:32;;;;;;;7.85;4.68;;;17.70;81.50;;;;;;2343375;57;21097;-55
2022/10/27 10:39:01;;;;;;;9.70;4.65;;;17.80;81.30;;;;;;2344439;57;21041;-54
2022/10/27 10:41:29;;;;;;;7.93;4.70;;;17.80;80.90;;;;;;2339931;57;21073;-57
2022/10/27 10:46:53;;;;;;;8.70;4.53;;;17.90;80.90;;;;;;2405655;52;22074;-51
2022/10/27 10:49:23;;;;;;;8.52;4.85;;;17.90;80.80;;;;;;2345230;57;21073;-52
2022/10/27 10:51:54;;;;;;;6.70;3.78;;;18.00;80.90;;;;;;2346300;57;21036;-54
2022/10/27 10:54:26;;;;;;;7.20;3.90;;;18.10;80.70;;;;;;2447230;53;21033;-55
2022/10/27 10:56:55;;;;;;;7.57;3.72;;;18.10;80.80;;;;;;2372204;56;21126;-55
2022/10/27 10:59:26;;;;;;;9.10;3.90;;;18.20;80.70;;;;;;2372059;56;21118;-54
2022/10/27 11:01:57;;;;;;;8.52;3.62;;;18.20;80.60;;;;;;2374151;56;21031;-55
2022/10/27 11:04:28;;;;;;;6.12;3.72;;;18.30;80.60;;;;;;2396553;52;21026;-55
2022/10/27 11:07:05;;;;;;;8.00;4.37;;;18.30;80.30;;;;;;2373839;56;21016;-54
2022/10/27 11:09:39;;;;;;;7.25;3.62;;;18.40;80.30;;;;;;2374073;56;21051;-56
2022/10/27 11:14:50;;;;;;;7.72;3.90;;;18.50;79.80;;;;;;2344842;57;22476;-54
2022/10/27 11:17:18;;;;;;;10.02;3.50;;;18.50;79.70;;;;;;2345024;57;21085;-52
2022/10/27 11:19:46;;;;;;;5.50;2.75;;;18.60;79.30;;;;;;2346149;57;21046;-55
2022/10/27 11:22:17;;;;;;;5.93;3.10;;;18.60;79.10;;;;;;2345066;57;21363;-56
2022/10/27 11:24:52;;;;;;;7.40;2.90;;;18.70;79.10;;;;;;2345841;57;21030;-53
2022/10/27 11:27:25;;;;;;;6.60;2.92;;;18.70;79.20;;;;;;2343451;57;21061;-56
2022/10/27 11:29:58;;;;;;;11.05;3.30;;;18.70;78.90;;;;;;2417314;53;21054;-55
2022/10/27 11:32:32;;;;;;;7.43;3.35;;;18.80;78.40;;;;;;2345716;57;21022;-55
2022/10/27 11:35:08;;;;;;;6.90;3.25;;;18.80;77.60;;;;;;2400693;53;21029;-54
2022/10/27 11:37:42;;;;;;;8.27;3.37;;;18.80;77.80;;;;;;2344668;57;21030;-55
2022/10/27 11:40:15;;;;;;;6.50;3.20;;;18.80;77.90;;;;;;2346066;57;21006;-56
2022/10/27 11:42:50;;;;;;;10.60;3.08;;;18.90;77.90;;;;;;2344821;57;21041;-55
2022/10/27 11:45:23;;;;;;;5.68;2.80;;;18.90;77.90;;;;;;2344612;57;21109;-54
2022/10/27 11:47:57;;;;;;;9.32;3.00;;;19.00;77.80;;;;;;2345534;57;21052;-54
2022/10/27 11:50:30;;;;;;;5.87;2.72;;;19.00;77.60;;;;;;2343647;57;21081;-56
2022/10/27 11:53:00;;;;;;;3.78;3.03;;;19.10;77.80;;;;;;2345528;57;21081;-55
2022/10/27 11:55:39;;;;;;;5.97;3.10;;;19.10;76.40;;;;;;2346658;57;21386;-53
2022/10/27 12:01:02;;;;;;;6.20;3.87;;;19.30;76.30;;;;;;2293431;58;22563;-55
2022/10/27 12:03:57;;;;;;;4.65;2.65;;;19.30;75.90;;;;;;2288978;55;21139;-55
2022/10/27 12:08:48;;;;;;;7.82;2.50;;;19.40;74.40;;;;;;2324936;57;24564;-57
2022/10/27 12:11:30;;;;;;;5.72;2.62;;;19.40;76.70;;;;;;2317662;58;21052;-57
2022/10/27 12:14:03;;;;;;;4.60;2.28;;;19.40;76.90;;;;;;2317069;58;21039;-59
2022/10/27 12:19:13;;;;;;;10.05;3.08;;;19.40;76.70;;;;;;2272883;59;22190;-57
2022/10/27 12:21:45;;;;;;;7.62;2.35;;;19.60;76.50;;;;;;2263720;59;21136;-57
2022/10/27 12:24:20;;;;;;;6.80;2.73;;;19.70;76.50;;;;;;2262970;59;21150;-56
2022/10/27 12:26:52;;;;;;;4.55;2.60;;;19.70;76.20;;;;;;2401424;54;21940;-57
2022/10/27 12:29:20;;;;;;;8.88;2.72;;;19.80;76.00;;;;;;2293029;58;21122;-58
2022/10/27 12:32:07;;;;;;;7.45;3.60;;;19.90;76.30;;;;;;2296912;58;21121;-57
2022/10/27 12:37:21;;;;;;;8.93;3.15;;;19.90;75.60;;;;;;2310613;57;22431;-58
2022/10/27 12:42:39;;;;;;;6.68;2.70;;;20.00;75.40;;;;;;2352573;57;22058;-57
2022/10/27 12:45:27;;;;;;;6.45;2.60;;;20.00;75.20;;;;;;2345401;57;21522;-57
2022/10/27 12:48:03;;;;;;;5.10;2.60;;;20.00;75.20;;;;;;2366053;56;21047;-57
2022/10/27 12:50:41;;;;;;;5.95;2.97;;;20.10;75.00;;;;;;2369425;56;21073;-56
2022/10/27 12:56:02;;;;;;;5.70;2.62;;;20.10;74.80;;;;;;2351614;57;22066;-57
2022/10/27 13:04:29;;;;;;;9.75;3.28;;;20.10;74.60;;;;;;2352465;57;22105;-57
2022/10/27 13:07:23;;;;;;;6.55;2.60;;;20.10;74.40;;;;;;2351809;56;21130;-58
2022/10/27 13:10:14;;;;;;;6.97;2.53;;;20.10;74.20;;;;;;2369214;56;21130;-58
2022/10/27 13:12:55;;;;;;;8.80;3.40;;;20.10;74.10;;;;;;2370202;56;21428;-57
2022/10/27 13:15:44;;;;;;;8.57;2.95;;;20.20;73.80;;;;;;2622453;52;21650;-57
2022/10/27 13:18:32;;;;;;;5.90;2.65;;;20.20;73.80;;;;;;2373341;56;21090;-53
2022/10/27 13:23:53;;;;;;;5.28;2.70;;;20.20;73.90;;;;;;2352678;57;22491;-54
2022/10/27 13:26:28;;;;;;;5.28;2.40;;;20.20;74.00;;;;;;2345171;56;21053;-55
2022/10/27 13:31:35;;;;;;;7.18;2.28;;;20.20;74.20;;;;;;2322335;57;22572;-55
2022/10/27 13:34:18;;;;;;;5.70;2.17;;;20.20;74.20;;;;;;2343460;57;21050;-53
2022/10/27 13:36:46;;;;;;;6.93;2.95;;;20.30;74.10;;;;;;2345474;57;21029;-54
2022/10/27 13:39:51;;;;;;;3.97;2.65;;;20.30;74.10;;;;;;2589888;53;21061;-53
2022/10/27 13:45:47;;;;;;;9.13;2.42;;;20.30;74.00;;;;;;2353417;57;22066;-53
2022/10/27 13:48:35;;;;;;;7.57;2.37;;;20.30;74.10;;;;;;2366709;56;21582;-54
2022/10/27 13:51:39;;;;;;;5.97;2.45;;;20.30;73.70;;;;;;2370541;56;21062;-54
2022/10/27 13:54:44;;;;;;;3.58;2.95;;;20.30;74.10;;;;;;2623945;52;21082;-55